Hilmar, California
Current Conditions -  °F | °C
As of 6:45 AM on Sunday 21 Dec 2014 (Local Time) from KMER Reporting Station
Overcast Overcast  
Wind Chill: 48°   Ceiling: 100
Heat Index: 48°   Visibility: 0.25mi
Dew Point: 48°   Wind: 0mph
Humidity: 100%   Direction: NA
Pressure: 30.28"   Gusts: NA
Location:  37.41°N, 120.85°W
Report Text: KMER 211445Z 00000KT 1/4SM VV001 09/09 A3028 FG
Loading
Personal Weather Stations






























Interactive Weather Map New forecast layout! Learn more

10-Day Weather Forecast

Advertisements
Track Severe Weather on mobile